createdAt,value
2018-07-11T00:00:32.927Z,13.37
2018-07-11T00:05:36.497Z,13.49
2018-07-11T00:10:40.006Z,13.63
2018-07-11T00:15:43.611Z,13.72
2018-07-11T00:20:47.614Z,13.77
2018-07-11T00:25:51.728Z,13.84
2018-07-11T00:30:55.857Z,13.91
2018-07-11T00:35:59.546Z,13.95
2018-07-11T00:41:03.509Z,14.09
2018-07-11T00:46:07.152Z,14.07
2018-07-11T00:51:11.301Z,14.05
2018-07-11T00:56:14.933Z,14.07
2018-07-11T01:01:18.514Z,14.13
2018-07-11T01:06:22.265Z,14.13
2018-07-11T01:11:26.449Z,14.12
2018-07-11T01:16:31.384Z,14.14
2018-07-11T01:21:35.709Z,14.16
2018-07-11T01:26:40.661Z,14.13
2018-07-11T01:31:44.161Z,14.16
2018-07-11T01:36:47.727Z,14.09
2018-07-11T01:41:52.208Z,14.08
2018-07-11T01:46:55.933Z,14.13
2018-07-11T01:52:10.676Z,14.01
2018-07-11T01:57:20.641Z,13.85
2018-07-11T02:02:26.187Z,13.70
2018-07-11T02:07:30.295Z,13.54
2018-07-11T02:12:34.021Z,13.46
2018-07-11T02:17:39.306Z,13.41
2018-07-11T02:22:43.386Z,13.31
2018-07-11T02:27:47.172Z,13.34
2018-07-11T02:32:50.829Z,13.29
2018-07-11T02:37:55.160Z,13.12
2018-07-11T02:42:58.707Z,13.04
2018-07-11T02:48:02.910Z,13.13
2018-07-11T02:53:06.865Z,12.98
2018-07-11T02:58:11.124Z,12.82
2018-07-11T03:03:15.185Z,12.74
2018-07-11T03:08:19.149Z,12.81
2018-07-11T03:13:22.712Z,12.72
2018-07-11T03:18:26.361Z,12.70
2018-07-11T03:23:30.001Z,12.71
2018-07-11T03:28:34.482Z,12.86
2018-07-11T03:33:38.050Z,12.86
2018-07-11T03:38:41.640Z,12.97
2018-07-11T03:43:46.194Z,12.88
2018-07-11T03:48:49.796Z,12.92
2018-07-11T03:53:53.413Z,12.78
2018-07-11T03:58:56.920Z,12.83
2018-07-11T04:04:00.611Z,12.81
2018-07-11T04:09:05.245Z,12.75
2018-07-11T04:14:08.828Z,12.79
2018-07-11T04:19:12.499Z,12.82
2018-07-11T04:24:17.200Z,12.81
2018-07-11T04:29:20.786Z,12.79
2018-07-11T04:34:25.598Z,12.82
2018-07-11T04:39:29.653Z,12.87
2018-07-11T04:44:33.897Z,12.93
2018-07-11T04:49:37.760Z,13.04
2018-07-11T04:54:41.406Z,13.18
2018-07-11T04:59:45.827Z,13.29
2018-07-11T05:04:49.472Z,13.69
2018-07-11T05:09:52.914Z,13.85
2018-07-11T05:14:56.469Z,13.93
2018-07-11T05:19:59.971Z,14.08
2018-07-11T05:25:03.670Z,14.21
2018-07-11T05:30:07.375Z,14.21
2018-07-11T05:35:11.183Z,14.30
2018-07-11T05:40:14.844Z,14.35
2018-07-11T05:45:18.894Z,14.32
2018-07-11T05:50:22.923Z,14.47
2018-07-11T05:55:27.484Z,14.50
2018-07-11T06:00:30.996Z,14.62
2018-07-11T06:05:34.580Z,14.82
2018-07-11T06:10:38.477Z,14.98
2018-07-11T06:15:42.813Z,15.13
2018-07-11T06:20:46.360Z,15.34
2018-07-11T06:25:49.985Z,15.60
2018-07-11T06:30:53.484Z,15.63
2018-07-11T06:35:57.192Z,15.62
2018-07-11T06:41:00.763Z,15.82
2018-07-11T06:46:04.448Z,15.77
2018-07-11T06:51:08.587Z,15.86
2018-07-11T06:56:13.399Z,15.93
2018-07-11T07:01:17.191Z,16.03
2018-07-11T07:06:20.901Z,15.91
2018-07-11T07:11:24.976Z,15.96
2018-07-11T07:16:28.612Z,15.98
2018-07-11T07:21:32.171Z,15.93
2018-07-11T07:26:35.958Z,16.02
2018-07-11T07:31:43.060Z,16.15
2018-07-11T07:36:46.732Z,16.49
2018-07-11T07:41:51.090Z,16.46
2018-07-11T07:47:01.654Z,16.35
2018-07-11T07:52:06.407Z,16.32
2018-07-11T07:57:10.749Z,16.26
2018-07-11T08:02:14.306Z,16.12
2018-07-11T08:07:18.257Z,16.27
2018-07-11T08:12:21.852Z,16.23
2018-07-11T08:17:25.531Z,16.28
2018-07-11T08:23:42.638Z,16.37
2018-07-11T08:31:06.417Z,16.57
2018-07-11T08:36:27.154Z,16.56
2018-07-11T08:45:56.768Z,16.58
2018-07-11T08:51:12.497Z,16.64
2018-07-11T08:57:34.020Z,17.02
2018-07-11T09:03:00.615Z,17.18
2018-07-11T09:08:45.388Z,17.19
2018-07-11T09:14:34.553Z,17.29
2018-07-11T09:19:53.101Z,17.25
2018-07-11T09:24:56.641Z,17.48
2018-07-11T09:30:00.356Z,17.57
2018-07-11T09:35:04.012Z,17.73
2018-07-11T09:40:07.639Z,17.53
2018-07-11T09:45:11.237Z,17.41
2018-07-11T09:50:15.384Z,17.49
2018-07-11T09:55:18.965Z,17.75
2018-07-11T10:00:33.561Z,17.94
2018-07-11T10:05:37.147Z,17.82
2018-07-11T10:10:40.685Z,17.89
2018-07-11T10:15:45.345Z,17.83
2018-07-11T10:20:48.922Z,17.80
2018-07-11T10:25:52.809Z,17.84
2018-07-11T10:30:56.707Z,17.76
2018-07-11T10:36:01.008Z,17.69
2018-07-11T10:41:05.506Z,17.69
2018-07-11T10:46:09.139Z,17.65
2018-07-11T10:51:12.703Z,17.39
2018-07-11T10:56:16.348Z,17.24
2018-07-11T11:01:19.913Z,17.18
2018-07-11T11:06:23.484Z,17.19
2018-07-11T11:11:27.484Z,17.23
2018-07-11T11:16:31.132Z,17.22
2018-07-11T11:21:34.917Z,17.03
2018-07-11T11:26:38.601Z,16.93
2018-07-11T11:31:42.265Z,16.83
2018-07-11T11:36:45.866Z,16.82
2018-07-11T11:41:49.853Z,16.81
2018-07-11T11:46:57.417Z,16.97
2018-07-11T11:52:01.015Z,16.94
2018-07-11T11:57:04.849Z,17.00
2018-07-11T12:02:08.360Z,16.90
2018-07-11T12:07:11.967Z,16.82
2018-07-11T12:12:15.643Z,16.75
2018-07-11T12:17:19.226Z,16.74
2018-07-11T12:22:24.819Z,16.70
2018-07-11T12:27:28.561Z,16.28
2018-07-11T12:32:32.481Z,16.34
2018-07-11T12:37:36.320Z,16.40
2018-07-11T12:42:39.941Z,16.44
2018-07-11T12:47:50.867Z,16.51
2018-07-11T12:52:54.405Z,16.73
2018-07-11T12:57:59.021Z,16.74
2018-07-11T13:03:02.642Z,16.87
2018-07-11T13:08:06.510Z,17.12
2018-07-11T13:13:12.981Z,17.18
2018-07-11T13:18:16.586Z,16.95
2018-07-11T13:23:20.081Z,16.76
2018-07-11T13:28:23.717Z,16.82
2018-07-11T13:33:27.429Z,17.21
2018-07-11T13:38:31.251Z,17.47
2018-07-11T13:43:34.902Z,18.21
2018-07-11T13:48:38.554Z,18.88
2018-07-11T13:53:42.372Z,18.89
2018-07-11T13:58:46.039Z,19.64
2018-07-11T14:03:49.628Z,19.69
2018-07-11T14:08:54.247Z,19.46
2018-07-11T14:13:57.800Z,19.47
2018-07-11T14:19:02.031Z,19.94
2018-07-11T14:24:05.579Z,20.49
2018-07-11T14:29:10.416Z,20.75
2018-07-11T14:34:14.040Z,21.30
2018-07-11T14:39:18.214Z,21.29
2018-07-11T14:44:21.993Z,21.14
2018-07-11T14:49:25.935Z,21.03
2018-07-11T14:54:29.770Z,20.76
2018-07-11T14:59:33.565Z,20.85
2018-07-11T15:04:37.060Z,20.78
2018-07-11T15:09:40.703Z,20.44
2018-07-11T15:14:44.294Z,20.17
2018-07-11T15:19:48.348Z,20.31
2018-07-11T15:24:51.879Z,20.25
2018-07-11T15:29:57.031Z,19.84
2018-07-11T15:35:00.555Z,19.67
2018-07-11T15:40:05.407Z,19.55
2018-07-11T15:45:09.060Z,19.49
2018-07-11T15:50:12.680Z,19.45
2018-07-11T15:55:16.305Z,19.46
2018-07-11T16:00:43.231Z,19.41
2018-07-11T16:05:47.857Z,19.42
2018-07-11T16:10:55.141Z,19.39
2018-07-11T16:15:59.571Z,19.52
2018-07-11T16:21:04.329Z,19.72
2018-07-11T16:26:07.905Z,19.83
2018-07-11T16:31:12.098Z,19.67
2018-07-11T16:36:16.811Z,19.67
2018-07-11T16:41:20.537Z,19.86
2018-07-11T16:46:24.117Z,19.60
2018-07-11T16:51:36.029Z,19.44
2018-07-11T16:56:39.877Z,19.37
2018-07-11T17:01:59.915Z,19.23
2018-07-11T17:07:15.698Z,19.34
2018-07-11T17:12:20.099Z,19.22
2018-07-11T17:17:25.615Z,19.14
2018-07-11T17:22:32.178Z,18.93
2018-07-11T17:27:35.867Z,19.03
2018-07-11T17:32:40.324Z,18.96
2018-07-11T17:37:43.933Z,18.79
2018-07-11T17:42:47.649Z,18.67
2018-07-11T17:50:04.490Z,18.60
2018-07-11T17:55:11.287Z,18.67
2018-07-11T18:00:33.689Z,18.67
2018-07-11T18:05:45.899Z,18.64
2018-07-11T18:10:52.868Z,18.64
2018-07-11T18:16:05.869Z,18.65
2018-07-11T18:21:21.313Z,18.66
2018-07-11T18:26:39.220Z,18.64
2018-07-11T18:31:59.030Z,18.56
2018-07-11T18:39:17.526Z,18.64
2018-07-11T18:44:40.708Z,18.58
2018-07-11T18:50:55.190Z,18.41
2018-07-11T18:56:09.771Z,18.37
2018-07-11T19:01:24.890Z,18.29
2018-07-11T19:06:42.015Z,18.21
2018-07-11T19:12:04.528Z,18.02
2018-07-11T19:17:19.878Z,18.09
2018-07-11T19:22:35.384Z,17.90
2018-07-11T19:27:47.190Z,17.82
2018-07-11T19:33:01.237Z,17.84
2018-07-11T19:38:38.627Z,17.74
2018-07-11T19:43:51.209Z,17.75
2018-07-11T19:49:05.171Z,17.73
2018-07-11T19:54:17.987Z,17.72
2018-07-11T19:59:28.905Z,17.68
2018-07-11T20:04:33.281Z,17.62
2018-07-11T20:09:36.896Z,17.60
2018-07-11T20:14:41.485Z,17.52
2018-07-11T20:19:45.185Z,17.49
2018-07-11T20:24:48.833Z,17.45
2018-07-11T20:29:53.105Z,17.48
2018-07-11T20:34:57.393Z,17.46
2018-07-11T20:40:00.939Z,17.41
2018-07-11T20:45:04.602Z,17.47
2018-07-11T20:50:09.974Z,17.55
2018-07-11T20:55:14.135Z,17.51
2018-07-11T21:00:30.315Z,17.56
2018-07-11T21:07:53.788Z,17.40
2018-07-11T21:15:11.538Z,17.20
2018-07-11T21:20:15.032Z,17.02
2018-07-11T21:25:18.781Z,17.00
2018-07-11T21:30:22.360Z,17.06
2018-07-11T21:35:26.046Z,17.09
2018-07-11T21:40:29.629Z,17.05
2018-07-11T21:45:33.485Z,17.15
2018-07-11T21:50:36.938Z,17.08
2018-07-11T21:55:40.471Z,17.14
2018-07-11T22:00:44.005Z,17.12
2018-07-11T22:05:47.680Z,17.14
2018-07-11T22:10:51.225Z,17.16
2018-07-11T22:15:54.913Z,17.02
2018-07-11T22:20:57.233Z,16.75
2018-07-11T22:25:59.781Z,16.54
2018-07-11T22:31:02.309Z,16.46
2018-07-11T22:36:04.666Z,16.31
2018-07-11T22:41:07.189Z,16.23
2018-07-11T22:46:09.508Z,16.05
2018-07-11T22:51:12.077Z,15.96
2018-07-11T22:56:14.386Z,16.01
2018-07-11T23:01:17.947Z,16.22
2018-07-11T23:06:20.249Z,16.31
2018-07-11T23:11:22.590Z,16.16
2018-07-11T23:16:24.896Z,16.08
2018-07-11T23:21:28.092Z,16.09
2018-07-11T23:26:30.422Z,16.06
2018-07-11T23:31:32.779Z,16.08
2018-07-11T23:36:35.077Z,16.09
2018-07-11T23:41:38.755Z,16.09
2018-07-11T23:46:41.071Z,16.09
2018-07-11T23:51:43.819Z,16.12
2018-07-11T23:56:46.153Z,16.19
